sensor_id;sensor_type;location;lat;lon;timestamp;pressure;altitude;pressure_sealevel;temperature;humidity
74329;BME280;62749;51.982;5.916;2023-05-14T00:02:20;101745.75;;;15.54;65.53
74329;BME280;62749;51.982;5.916;2023-05-14T00:04:49;101731.78;;;15.49;65.43
74329;BME280;62749;51.982;5.916;2023-05-14T00:07:18;101738.69;;;15.34;65.74
74329;BME280;62749;51.982;5.916;2023-05-14T00:09:48;101738.53;;;15.37;65.50
74329;BME280;62749;51.982;5.916;2023-05-14T00:12:17;101738.25;;;15.24;66.18
74329;BME280;62749;51.982;5.916;2023-05-14T00:14:46;101735.25;;;15.13;66.40
74329;BME280;62749;51.982;5.916;2023-05-14T00:17:18;101747.09;;;15.06;66.14
74329;BME280;62749;51.982;5.916;2023-05-14T00:19:48;101733.94;;;15.02;66.45
74329;BME280;62749;51.982;5.916;2023-05-14T00:22:17;101731.53;;;14.96;66.63
74329;BME280;62749;51.982;5.916;2023-05-14T00:24:47;101736.88;;;14.96;66.58
74329;BME280;62749;51.982;5.916;2023-05-14T00:27:16;101733.00;;;15.03;66.61
74329;BME280;62749;51.982;5.916;2023-05-14T00:29:45;101735.84;;;14.99;66.89
74329;BME280;62749;51.982;5.916;2023-05-14T00:32:17;101734.41;;;14.92;67.10
74329;BME280;62749;51.982;5.916;2023-05-14T00:34:47;101729.09;;;14.92;67.12
74329;BME280;62749;51.982;5.916;2023-05-14T00:37:16;101731.16;;;14.85;67.29
74329;BME280;62749;51.982;5.916;2023-05-14T00:39:46;101718.94;;;14.81;67.24
74329;BME280;62749;51.982;5.916;2023-05-14T00:42:15;101709.03;;;14.84;67.43
74329;BME280;62749;51.982;5.916;2023-05-14T00:44:44;101720.31;;;14.90;67.17
74329;BME280;62749;51.982;5.916;2023-05-14T00:47:14;101707.72;;;14.93;67.32
74329;BME280;62749;51.982;5.916;2023-05-14T00:49:46;101704.34;;;14.90;67.52
74329;BME280;62749;51.982;5.916;2023-05-14T00:52:16;101713.22;;;14.90;67.08
74329;BME280;62749;51.982;5.916;2023-05-14T00:54:47;101709.53;;;14.93;67.16
74329;BME280;62749;51.982;5.916;2023-05-14T00:57:17;101712.47;;;14.86;67.19
74329;BME280;62749;51.982;5.916;2023-05-14T00:59:47;101704.66;;;14.83;67.54
74329;BME280;62749;51.982;5.916;2023-05-14T01:02:17;101708.25;;;14.82;67.62
74329;BME280;62749;51.982;5.916;2023-05-14T01:04:49;101700.84;;;14.89;67.34
74329;BME280;62749;51.982;5.916;2023-05-14T01:07:28;101710.03;;;14.82;67.35
74329;BME280;62749;51.982;5.916;2023-05-14T01:12:54;101691.50;;;14.80;67.89
74329;BME280;62749;51.982;5.916;2023-05-14T01:15:36;101693.72;;;14.90;67.56
74329;BME280;62749;51.982;5.916;2023-05-14T01:18:09;101691.94;;;14.90;67.27
74329;BME280;62749;51.982;5.916;2023-05-14T01:20:41;101686.53;;;14.92;67.29
74329;BME280;62749;51.982;5.916;2023-05-14T01:23:16;101700.41;;;14.98;67.08
74329;BME280;62749;51.982;5.916;2023-05-14T01:25:45;101698.25;;;15.07;67.05
74329;BME280;62749;51.982;5.916;2023-05-14T01:28:17;101699.19;;;15.06;66.86
74329;BME280;62749;51.982;5.916;2023-05-14T01:30:52;101697.41;;;15.06;67.31
74329;BME280;62749;51.982;5.916;2023-05-14T01:33:25;101693.38;;;14.97;66.94
74329;BME280;62749;51.982;5.916;2023-05-14T01:35:56;101703.28;;;14.75;67.24
74329;BME280;62749;51.982;5.916;2023-05-14T01:38:29;101696.75;;;14.61;67.75
74329;BME280;62749;51.982;5.916;2023-05-14T01:41:00;101697.16;;;14.72;68.24
74329;BME280;62749;51.982;5.916;2023-05-14T01:43:30;101687.19;;;14.78;68.06
74329;BME280;62749;51.982;5.916;2023-05-14T01:46:00;101686.59;;;14.71;68.19
74329;BME280;62749;51.982;5.916;2023-05-14T01:48:30;101684.06;;;14.68;68.46
74329;BME280;62749;51.982;5.916;2023-05-14T01:50:59;101685.84;;;14.67;69.19
74329;BME280;62749;51.982;5.916;2023-05-14T01:53:31;101679.13;;;14.38;69.18
74329;BME280;62749;51.982;5.916;2023-05-14T01:56:01;101679.53;;;14.49;69.53
74329;BME280;62749;51.982;5.916;2023-05-14T01:58:30;101671.41;;;14.52;69.74
74329;BME280;62749;51.982;5.916;2023-05-14T02:01:00;101680.25;;;14.53;69.39
74329;BME280;62749;51.982;5.916;2023-05-14T02:03:29;101681.94;;;14.55;69.51
74329;BME280;62749;51.982;5.916;2023-05-14T02:05:59;101681.38;;;14.47;69.49
74329;BME280;62749;51.982;5.916;2023-05-14T02:08:31;101685.84;;;14.47;70.28
74329;BME280;62749;51.982;5.916;2023-05-14T02:11:00;101685.38;;;14.37;70.26
74329;BME280;62749;51.982;5.916;2023-05-14T02:13:30;101678.34;;;14.36;70.45
74329;BME280;62749;51.982;5.916;2023-05-14T02:15:59;101670.91;;;14.23;70.96
74329;BME280;62749;51.982;5.916;2023-05-14T02:18:28;101673.44;;;14.26;71.10
74329;BME280;62749;51.982;5.916;2023-05-14T02:20:58;101676.69;;;14.13;71.02
74329;BME280;62749;51.982;5.916;2023-05-14T02:23:27;101675.19;;;14.07;71.70
74329;BME280;62749;51.982;5.916;2023-05-14T02:25:59;101661.66;;;13.91;72.09
74329;BME280;62749;51.982;5.916;2023-05-14T02:28:28;101653.25;;;13.81;72.54
74329;BME280;62749;51.982;5.916;2023-05-14T02:30:58;101658.19;;;13.89;72.95
74329;BME280;62749;51.982;5.916;2023-05-14T02:33:27;101659.88;;;13.91;72.53
74329;BME280;62749;51.982;5.916;2023-05-14T02:35:57;101659.69;;;13.96;72.54
74329;BME280;62749;51.982;5.916;2023-05-14T02:38:26;101654.25;;;13.99;72.66
74329;BME280;62749;51.982;5.916;2023-05-14T02:40:56;101668.38;;;14.00;72.18
74329;BME280;62749;51.982;5.916;2023-05-14T02:43:28;101651.16;;;13.88;71.97
74329;BME280;62749;51.982;5.916;2023-05-14T02:45:57;101663.06;;;13.79;72.93
74329;BME280;62749;51.982;5.916;2023-05-14T02:48:26;101650.31;;;13.87;73.10
74329;BME280;62749;51.982;5.916;2023-05-14T02:50:56;101646.66;;;13.90;72.48
74329;BME280;62749;51.982;5.916;2023-05-14T02:53:25;101650.22;;;13.89;72.92
74329;BME280;62749;51.982;5.916;2023-05-14T02:55:54;101650.63;;;13.79;73.24
74329;BME280;62749;51.982;5.916;2023-05-14T02:58:24;101657.75;;;13.79;73.31
74329;BME280;62749;51.982;5.916;2023-05-14T03:00:56;101644.91;;;13.68;73.37
74329;BME280;62749;51.982;5.916;2023-05-14T03:03:25;101651.03;;;13.70;73.87
74329;BME280;62749;51.982;5.916;2023-05-14T03:05:55;101653.88;;;13.65;73.87
74329;BME280;62749;51.982;5.916;2023-05-14T03:08:24;101655.00;;;13.60;73.62
74329;BME280;62749;51.982;5.916;2023-05-14T03:10:53;101663.00;;;13.58;74.43
74329;BME280;62749;51.982;5.916;2023-05-14T03:13:23;101655.34;;;13.50;74.37
74329;BME280;62749;51.982;5.916;2023-05-14T03:15:52;101651.16;;;13.45;74.23
74329;BME280;62749;51.982;5.916;2023-05-14T03:18:25;101649.56;;;13.39;75.42
74329;BME280;62749;51.982;5.916;2023-05-14T03:20:56;101643.38;;;13.40;75.08
74329;BME280;62749;51.982;5.916;2023-05-14T03:23:25;101644.25;;;13.39;74.77
74329;BME280;62749;51.982;5.916;2023-05-14T03:25:57;101646.06;;;13.39;74.96
74329;BME280;62749;51.982;5.916;2023-05-14T03:28:26;101646.00;;;13.42;75.43
74329;BME280;62749;51.982;5.916;2023-05-14T03:30:56;101635.66;;;13.34;75.03
74329;BME280;62749;51.982;5.916;2023-05-14T03:33:28;101640.25;;;13.29;75.87
74329;BME280;62749;51.982;5.916;2023-05-14T03:35:57;101639.16;;;13.34;75.79
74329;BME280;62749;51.982;5.916;2023-05-14T03:38:27;101627.81;;;13.31;75.67
74329;BME280;62749;51.982;5.916;2023-05-14T03:40:56;101640.25;;;13.29;75.45
74329;BME280;62749;51.982;5.916;2023-05-14T03:43:26;101625.25;;;13.28;76.07
74329;BME280;62749;51.982;5.916;2023-05-14T03:45:55;101633.34;;;13.25;75.74
74329;BME280;62749;51.982;5.916;2023-05-14T03:48:28;101633.22;;;13.28;75.84
74329;BME280;62749;51.982;5.916;2023-05-14T03:50:57;101622.91;;;13.20;75.84
74329;BME280;62749;51.982;5.916;2023-05-14T03:53:26;101617.72;;;13.17;76.19
74329;BME280;62749;51.982;5.916;2023-05-14T03:55:56;101625.63;;;13.18;76.23
74329;BME280;62749;51.982;5.916;2023-05-14T03:58:25;101612.38;;;13.18;76.64
74329;BME280;62749;51.982;5.916;2023-05-14T04:00:55;101610.75;;;13.14;76.18
74329;BME280;62749;51.982;5.916;2023-05-14T04:03:28;101622.72;;;13.02;76.79
74329;BME280;62749;51.982;5.916;2023-05-14T04:05:57;101625.53;;;12.98;77.04
74329;BME280;62749;51.982;5.916;2023-05-14T04:08:27;101629.19;;;12.95;77.21
74329;BME280;62749;51.982;5.916;2023-05-14T04:10:56;101627.22;;;13.00;77.52
74329;BME280;62749;51.982;5.916;2023-05-14T04:13:25;101630.84;;;12.98;77.19
74329;BME280;62749;51.982;5.916;2023-05-14T04:15:55;101629.16;;;12.97;77.54
74329;BME280;62749;51.982;5.916;2023-05-14T04:18:24;101634.31;;;13.00;77.68
74329;BME280;62749;51.982;5.916;2023-05-14T04:20:56;101634.13;;;13.04;77.18
74329;BME280;62749;51.982;5.916;2023-05-14T04:23:26;101636.72;;;13.06;76.99
74329;BME280;62749;51.982;5.916;2023-05-14T04:25:57;101630.44;;;13.09;76.95
74329;BME280;62749;51.982;5.916;2023-05-14T04:28:26;101632.72;;;12.96;77.81
74329;BME280;62749;51.982;5.916;2023-05-14T04:30:55;101634.38;;;12.98;77.95
74329;BME280;62749;51.982;5.916;2023-05-14T04:33:25;101629.91;;;12.99;77.62
74329;BME280;62749;51.982;5.916;2023-05-14T04:35:57;101624.34;;;12.83;77.38
74329;BME280;62749;51.982;5.916;2023-05-14T04:38:26;101623.63;;;12.79;77.96
74329;BME280;62749;51.982;5.916;2023-05-14T04:40:57;101618.41;;;12.76;78.95
74329;BME280;62749;51.982;5.916;2023-05-14T04:43:26;101630.22;;;12.91;78.40
74329;BME280;62749;51.982;5.916;2023-05-14T04:45:56;101629.25;;;12.94;78.26
74329;BME280;62749;51.982;5.916;2023-05-14T04:48:26;101629.91;;;12.99;77.81
74329;BME280;62749;51.982;5.916;2023-05-14T04:50:58;101618.66;;;12.94;78.18
74329;BME280;62749;51.982;5.916;2023-05-14T04:53:27;101625.44;;;13.01;77.72
74329;BME280;62749;51.982;5.916;2023-05-14T04:56:07;101629.78;;;13.03;78.02
74329;BME280;62749;51.982;5.916;2023-05-14T04:58:37;101621.66;;;12.84;77.88
74329;BME280;62749;51.982;5.916;2023-05-14T05:01:06;101626.59;;;12.94;78.55
74329;BME280;62749;51.982;5.916;2023-05-14T05:03:36;101632.66;;;12.97;78.28
74329;BME280;62749;51.982;5.916;2023-05-14T05:06:08;101623.22;;;12.90;78.22
74329;BME280;62749;51.982;5.916;2023-05-14T05:08:37;101628.06;;;13.01;78.27
74329;BME280;62749;51.982;5.916;2023-05-14T05:11:07;101625.44;;;13.01;77.82
74329;BME280;62749;51.982;5.916;2023-05-14T05:13:36;101638.91;;;13.18;77.77
74329;BME280;62749;51.982;5.916;2023-05-14T05:16:06;101637.06;;;13.20;77.75
74329;BME280;62749;51.982;5.916;2023-05-14T05:18:35;101635.38;;;13.18;77.75
74329;BME280;62749;51.982;5.916;2023-05-14T05:21:08;101646.38;;;13.31;77.66
74329;BME280;62749;51.982;5.916;2023-05-14T05:23:37;101641.56;;;13.18;77.19
74329;BME280;62749;51.982;5.916;2023-05-14T05:26:06;101639.75;;;13.19;77.59
74329;BME280;62749;51.982;5.916;2023-05-14T05:28:36;101640.03;;;13.35;78.02
74329;BME280;62749;51.982;5.916;2023-05-14T05:31:05;101639.78;;;13.41;77.01
74329;BME280;62749;51.982;5.916;2023-05-14T05:33:34;101634.66;;;13.37;77.51
74329;BME280;62749;51.982;5.916;2023-05-14T05:36:04;101636.69;;;13.30;77.24
74329;BME280;62749;51.982;5.916;2023-05-14T05:38:36;101639.78;;;13.41;77.19
74329;BME280;62749;51.982;5.916;2023-05-14T05:41:06;101636.94;;;13.46;77.73
74329;BME280;62749;51.982;5.916;2023-05-14T05:43:35;101639.38;;;13.52;77.54
74329;BME280;62749;51.982;5.916;2023-05-14T05:46:05;101647.22;;;13.55;76.99
74329;BME280;62749;51.982;5.916;2023-05-14T05:48:34;101649.59;;;13.61;76.81
74329;BME280;62749;51.982;5.916;2023-05-14T05:51:04;101651.03;;;13.70;76.76
74329;BME280;62749;51.982;5.916;2023-05-14T05:53:36;101647.47;;;13.70;76.49
74329;BME280;62749;51.982;5.916;2023-05-14T05:56:06;101657.75;;;13.79;76.72
74329;BME280;62749;51.982;5.916;2023-05-14T05:58:35;101647.78;;;13.84;76.34
74329;BME280;62749;51.982;5.916;2023-05-14T06:01:04;101656.31;;;13.92;76.08
74329;BME280;62749;51.982;5.916;2023-05-14T06:03:34;101652.56;;;13.96;75.81
74329;BME280;62749;51.982;5.916;2023-05-14T06:06:04;101662.00;;;14.04;75.21
74329;BME280;62749;51.982;5.916;2023-05-14T06:11:47;101657.94;;;14.16;75.22
74329;BME280;62749;51.982;5.916;2023-05-14T06:14:17;101648.91;;;14.20;75.15
74329;BME280;62749;51.982;5.916;2023-05-14T06:16:46;101653.38;;;14.19;74.83
74329;BME280;62749;51.982;5.916;2023-05-14T06:19:16;101651.25;;;14.27;75.12
74329;BME280;62749;51.982;5.916;2023-05-14T06:21:45;101655.31;;;14.36;74.85
74329;BME280;62749;51.982;5.916;2023-05-14T06:24:14;101652.81;;;14.52;74.42
74329;BME280;62749;51.982;5.916;2023-05-14T06:26:48;101645.63;;;14.54;73.43
74329;BME280;62749;51.982;5.916;2023-05-14T06:29:17;101650.41;;;14.67;73.03
74329;BME280;62749;51.982;5.916;2023-05-14T06:31:46;101656.25;;;14.75;72.47
74329;BME280;62749;51.982;5.916;2023-05-14T06:34:16;101653.53;;;14.77;72.52
74329;BME280;62749;51.982;5.916;2023-05-14T06:36:45;101654.03;;;14.85;71.88
74329;BME280;62749;51.982;5.916;2023-05-14T06:39:14;101653.91;;;14.88;71.81
74329;BME280;62749;51.982;5.916;2023-05-14T06:41:44;101655.69;;;15.07;71.75
74329;BME280;62749;51.982;5.916;2023-05-14T06:44:17;101648.91;;;15.18;70.75
74329;BME280;62749;51.982;5.916;2023-05-14T06:46:46;101648.41;;;15.29;70.74
74329;BME280;62749;51.982;5.916;2023-05-14T06:49:15;101644.66;;;15.33;70.21
74329;BME280;62749;51.982;5.916;2023-05-14T06:51:45;101646.41;;;15.52;71.14
74329;BME280;62749;51.982;5.916;2023-05-14T06:54:14;101644.19;;;15.62;69.18
74329;BME280;62749;51.982;5.916;2023-05-14T06:56:45;101638.28;;;15.73;68.10
74329;BME280;62749;51.982;5.916;2023-05-14T06:59:17;101638.56;;;15.86;67.24
74329;BME280;62749;51.982;5.916;2023-05-14T07:04:59;101642.59;;;16.28;66.92
74329;BME280;62749;51.982;5.916;2023-05-14T07:07:28;101645.81;;;16.35;66.75
74329;BME280;62749;51.982;5.916;2023-05-14T07:09:57;101646.53;;;16.38;65.73
74329;BME280;62749;51.982;5.916;2023-05-14T07:12:27;101641.53;;;16.48;65.88
74329;BME280;62749;51.982;5.916;2023-05-14T07:14:59;101634.31;;;16.50;65.96
74329;BME280;62749;51.982;5.916;2023-05-14T07:17:28;101632.97;;;16.59;66.07
74329;BME280;62749;51.982;5.916;2023-05-14T07:19:57;101637.75;;;16.70;64.82
74329;BME280;62749;51.982;5.916;2023-05-14T07:22:27;101642.66;;;16.78;65.45
74329;BME280;62749;51.982;5.916;2023-05-14T07:24:56;101638.34;;;16.75;64.50
74329;BME280;62749;51.982;5.916;2023-05-14T07:27:25;101639.72;;;16.82;65.51
74329;BME280;62749;51.982;5.916;2023-05-14T07:29:55;101644.97;;;16.84;66.05
74329;BME280;62749;51.982;5.916;2023-05-14T07:32:27;101636.81;;;16.87;65.43
74329;BME280;62749;51.982;5.916;2023-05-14T07:34:56;101637.41;;;16.92;64.90
74329;BME280;62749;51.982;5.916;2023-05-14T07:37:25;101646.66;;;17.02;65.29
74329;BME280;62749;51.982;5.916;2023-05-14T07:39:55;101629.19;;;17.13;63.95
74329;BME280;62749;51.982;5.916;2023-05-14T07:42:24;101631.13;;;17.41;62.21
74329;BME280;62749;51.982;5.916;2023-05-14T07:44:53;101633.47;;;17.47;64.66
74329;BME280;62749;51.982;5.916;2023-05-14T07:47:23;101631.59;;;17.64;64.10
74329;BME280;62749;51.982;5.916;2023-05-14T07:49:56;101625.75;;;17.57;62.87
74329;BME280;62749;51.982;5.916;2023-05-14T07:52:25;101624.72;;;17.60;65.70
74329;BME280;62749;51.982;5.916;2023-05-14T07:54:55;101625.91;;;17.70;63.65
74329;BME280;62749;51.982;5.916;2023-05-14T07:57:25;101622.41;;;17.84;64.07
74329;BME280;62749;51.982;5.916;2023-05-14T07:59:55;101619.44;;;17.89;63.31
74329;BME280;62749;51.982;5.916;2023-05-14T08:02:24;101625.25;;;17.97;61.21
74329;BME280;62749;51.982;5.916;2023-05-14T08:05:08;101623.56;;;18.11;61.14
74329;BME280;62749;51.982;5.916;2023-05-14T08:07:38;101616.97;;;18.16;61.47
74329;BME280;62749;51.982;5.916;2023-05-14T08:10:08;101620.91;;;18.25;61.04
74329;BME280;62749;51.982;5.916;2023-05-14T08:12:37;101618.59;;;18.33;59.65
74329;BME280;62749;51.982;5.916;2023-05-14T08:15:09;101618.88;;;18.29;59.53
74329;BME280;62749;51.982;5.916;2023-05-14T08:17:38;101614.78;;;18.37;59.65
74329;BME280;62749;51.982;5.916;2023-05-14T08:20:11;101607.59;;;18.52;57.89
74329;BME280;62749;51.982;5.916;2023-05-14T08:22:41;101616.28;;;18.70;58.01
74329;BME280;62749;51.982;5.916;2023-05-14T08:25:10;101612.47;;;18.75;58.99
74329;BME280;62749;51.982;5.916;2023-05-14T08:27:39;101617.25;;;18.69;58.39
74329;BME280;62749;51.982;5.916;2023-05-14T08:30:10;101615.81;;;18.78;58.10
74329;BME280;62749;51.982;5.916;2023-05-14T08:32:39;101610.16;;;18.97;56.37
74329;BME280;62749;51.982;5.916;2023-05-14T08:35:11;101616.16;;;19.01;53.49
74329;BME280;62749;51.982;5.916;2023-05-14T08:37:41;101617.50;;;19.08;55.53
74329;BME280;62749;51.982;5.916;2023-05-14T08:40:11;101606.22;;;19.03;55.44
74329;BME280;62749;51.982;5.916;2023-05-14T08:42:41;101610.44;;;19.07;56.58
74329;BME280;62749;51.982;5.916;2023-05-14T08:45:16;101607.78;;;19.20;55.57
74329;BME280;62749;51.982;5.916;2023-05-14T08:47:48;101608.00;;;19.44;53.17
74329;BME280;62749;51.982;5.916;2023-05-14T08:50:20;101611.44;;;19.59;50.74
74329;BME280;62749;51.982;5.916;2023-05-14T08:52:50;101602.69;;;19.70;51.30
74329;BME280;62749;51.982;5.916;2023-05-14T08:55:20;101607.22;;;19.83;52.58
74329;BME280;62749;51.982;5.916;2023-05-14T08:57:49;101605.50;;;19.82;51.30
74329;BME280;62749;51.982;5.916;2023-05-14T09:00:19;101601.91;;;20.08;51.93
74329;BME280;62749;51.982;5.916;2023-05-14T09:02:48;101605.66;;;20.32;48.66
74329;BME280;62749;51.982;5.916;2023-05-14T09:05:22;101598.88;;;20.52;49.78
74329;BME280;62749;51.982;5.916;2023-05-14T09:07:52;101595.59;;;20.73;47.61
74329;BME280;62749;51.982;5.916;2023-05-14T09:10:21;101592.38;;;20.67;48.03
74329;BME280;62749;51.982;5.916;2023-05-14T09:12:51;101597.13;;;20.64;48.99
74329;BME280;62749;51.982;5.916;2023-05-14T09:15:20;101593.59;;;20.76;48.39
74329;BME280;62749;51.982;5.916;2023-05-14T09:17:50;101591.53;;;20.80;48.76
74329;BME280;62749;51.982;5.916;2023-05-14T09:20:23;101584.69;;;21.00;48.65
74329;BME280;62749;51.982;5.916;2023-05-14T09:22:53;101591.63;;;21.15;48.32
74329;BME280;62749;51.982;5.916;2023-05-14T09:25:26;101577.75;;;21.22;44.82
74329;BME280;62749;51.982;5.916;2023-05-14T09:27:55;101584.13;;;21.32;45.69
74329;BME280;62749;51.982;5.916;2023-05-14T09:30:25;101569.09;;;21.29;43.21
74329;BME280;62749;51.982;5.916;2023-05-14T09:32:54;101579.31;;;21.49;39.71
74329;BME280;62749;51.982;5.916;2023-05-14T09:35:26;101579.06;;;21.52;40.12
74329;BME280;62749;51.982;5.916;2023-05-14T09:37:55;101581.34;;;21.45;40.04
74329;BME280;62749;51.982;5.916;2023-05-14T09:40:25;101573.03;;;21.61;41.21
74329;BME280;62749;51.982;5.916;2023-05-14T09:42:54;101561.97;;;21.53;41.43
74329;BME280;62749;51.982;5.916;2023-05-14T09:45:24;101566.78;;;21.60;42.86
74329;BME280;62749;51.982;5.916;2023-05-14T09:47:53;101566.22;;;21.80;40.52
74329;BME280;62749;51.982;5.916;2023-05-14T09:50:22;101561.56;;;21.70;37.53
74329;BME280;62749;51.982;5.916;2023-05-14T09:52:56;101562.81;;;21.89;38.82
74329;BME280;62749;51.982;5.916;2023-05-14T09:58:39;101556.44;;;21.90;37.16
74329;BME280;62749;51.982;5.916;2023-05-14T10:01:09;101557.69;;;21.97;35.28
74329;BME280;62749;51.982;5.916;2023-05-14T10:03:38;101550.09;;;22.02;36.52
74329;BME280;62749;51.982;5.916;2023-05-14T10:06:11;101557.84;;;22.07;37.54
74329;BME280;62749;51.982;5.916;2023-05-14T10:08:45;101546.22;;;22.06;35.99
74329;BME280;62749;51.982;5.916;2023-05-14T10:11:19;101545.69;;;22.01;34.04
74329;BME280;62749;51.982;5.916;2023-05-14T10:14:02;101543.38;;;22.08;36.01
74329;BME280;62749;51.982;5.916;2023-05-14T10:16:36;101546.56;;;22.36;37.57
74329;BME280;62749;51.982;5.916;2023-05-14T10:19:08;101545.72;;;22.58;39.54
74329;BME280;62749;51.982;5.916;2023-05-14T10:21:40;101540.38;;;22.91;37.88
74329;BME280;62749;51.982;5.916;2023-05-14T10:24:17;101536.81;;;23.02;36.95
74329;BME280;62749;51.982;5.916;2023-05-14T10:26:48;101536.72;;;22.92;37.17
74329;BME280;62749;51.982;5.916;2023-05-14T10:29:17;101530.94;;;22.96;36.89
74329;BME280;62749;51.982;5.916;2023-05-14T10:31:48;101537.50;;;23.15;39.49
74329;BME280;62749;51.982;5.916;2023-05-14T10:34:33;101536.00;;;23.22;38.80
74329;BME280;62749;51.982;5.916;2023-05-14T10:37:04;101536.81;;;23.34;39.41
74329;BME280;62749;51.982;5.916;2023-05-14T10:39:49;101527.06;;;23.64;36.66
74329;BME280;62749;51.982;5.916;2023-05-14T10:42:26;101524.25;;;23.66;38.75
74329;BME280;62749;51.982;5.916;2023-05-14T10:44:57;101533.59;;;23.40;35.15
74329;BME280;62749;51.982;5.916;2023-05-14T10:47:28;101529.31;;;23.38;35.78
74329;BME280;62749;51.982;5.916;2023-05-14T10:49:59;101518.47;;;23.49;35.13
74329;BME280;62749;51.982;5.916;2023-05-14T10:52:30;101521.91;;;23.51;33.05
74329;BME280;62749;51.982;5.916;2023-05-14T10:55:04;101515.75;;;22.95;32.18
74329;BME280;62749;51.982;5.916;2023-05-14T10:57:37;101520.03;;;22.65;35.78
74329;BME280;62749;51.982;5.916;2023-05-14T11:00:09;101517.59;;;22.51;32.96
74329;BME280;62749;51.982;5.916;2023-05-14T11:02:41;101516.84;;;22.37;35.70
74329;BME280;62749;51.982;5.916;2023-05-14T11:05:13;101514.88;;;22.28;36.60
74329;BME280;62749;51.982;5.916;2023-05-14T11:07:45;101507.81;;;22.16;37.53
74329;BME280;62749;51.982;5.916;2023-05-14T11:10:19;101508.31;;;22.21;38.48
74329;BME280;62749;51.982;5.916;2023-05-14T11:12:50;101510.25;;;22.30;34.57
74329;BME280;62749;51.982;5.916;2023-05-14T11:15:21;101502.78;;;22.00;33.73
74329;BME280;62749;51.982;5.916;2023-05-14T11:17:52;101501.09;;;21.87;36.50
74329;BME280;62749;51.982;5.916;2023-05-14T11:20:22;101501.31;;;21.84;36.60
74329;BME280;62749;51.982;5.916;2023-05-14T11:22:51;101496.81;;;21.73;36.63
74329;BME280;62749;51.982;5.916;2023-05-14T11:25:23;101493.25;;;21.84;36.60
74329;BME280;62749;51.982;5.916;2023-05-14T11:27:53;101497.66;;;21.85;38.34
74329;BME280;62749;51.982;5.916;2023-05-14T11:30:26;101485.31;;;21.83;38.53
74329;BME280;62749;51.982;5.916;2023-05-14T11:32:55;101489.94;;;21.81;38.15
74329;BME280;62749;51.982;5.916;2023-05-14T11:35:25;101482.03;;;21.90;39.10
74329;BME280;62749;51.982;5.916;2023-05-14T11:37:54;101490.94;;;21.80;37.15
74329;BME280;62749;51.982;5.916;2023-05-14T11:40:26;101475.91;;;21.77;38.68
74329;BME280;62749;51.982;5.916;2023-05-14T11:42:56;101471.81;;;21.49;36.96
74329;BME280;62749;51.982;5.916;2023-05-14T11:45:26;101484.50;;;21.46;36.93
74329;BME280;62749;51.982;5.916;2023-05-14T11:47:55;101477.78;;;21.52;38.14
74329;BME280;62749;51.982;5.916;2023-05-14T11:50:25;101477.19;;;21.49;36.09
74329;BME280;62749;51.982;5.916;2023-05-14T11:52:56;101476.81;;;21.53;36.73
74329;BME280;62749;51.982;5.916;2023-05-14T11:55:28;101471.84;;;21.60;34.66
74329;BME280;62749;51.982;5.916;2023-05-14T11:58:05;101478.09;;;21.72;42.02
74329;BME280;62749;51.982;5.916;2023-05-14T12:00:37;101475.53;;;21.93;41.28
74329;BME280;62749;51.982;5.916;2023-05-14T12:03:08;101479.91;;;22.17;40.75
74329;BME280;62749;51.982;5.916;2023-05-14T12:05:38;101472.06;;;22.59;38.72
74329;BME280;62749;51.982;5.916;2023-05-14T12:08:20;101466.22;;;22.31;38.82
74329;BME280;62749;51.982;5.916;2023-05-14T12:10:52;101470.28;;;22.14;39.59
74329;BME280;62749;51.982;5.916;2023-05-14T12:13:25;101462.31;;;22.01;38.49
74329;BME280;62749;51.982;5.916;2023-05-14T12:15:55;101463.56;;;22.09;35.58
74329;BME280;62749;51.982;5.916;2023-05-14T12:18:28;101457.19;;;22.10;36.18
74329;BME280;62749;51.982;5.916;2023-05-14T12:21:01;101456.56;;;22.17;36.24
74329;BME280;62749;51.982;5.916;2023-05-14T12:23:33;101459.00;;;22.32;37.04
74329;BME280;62749;51.982;5.916;2023-05-14T12:26:06;101450.78;;;22.33;34.88
74329;BME280;62749;51.982;5.916;2023-05-14T12:28:38;101449.16;;;22.65;33.95
74329;BME280;62749;51.982;5.916;2023-05-14T12:31:09;101447.63;;;22.51;33.57
74329;BME280;62749;51.982;5.916;2023-05-14T12:33:39;101442.72;;;22.45;34.36
74329;BME280;62749;51.982;5.916;2023-05-14T12:36:08;101443.16;;;22.61;33.19
74329;BME280;62749;51.982;5.916;2023-05-14T12:38:38;101442.59;;;22.79;33.82
74329;BME280;62749;51.982;5.916;2023-05-14T12:41:10;101440.88;;;23.10;33.55
74329;BME280;62749;51.982;5.916;2023-05-14T12:43:42;101438.84;;;23.24;33.37
74329;BME280;62749;51.982;5.916;2023-05-14T12:46:11;101453.94;;;23.57;31.48
74329;BME280;62749;51.982;5.916;2023-05-14T12:48:41;101439.31;;;23.81;30.30
74329;BME280;62749;51.982;5.916;2023-05-14T12:51:10;101444.59;;;23.93;31.00
74329;BME280;62749;51.982;5.916;2023-05-14T12:53:40;101441.59;;;24.27;29.30
74329;BME280;62749;51.982;5.916;2023-05-14T12:56:12;101429.59;;;24.00;28.98
74329;BME280;62749;51.982;5.916;2023-05-14T13:01:53;101435.78;;;23.90;28.26
74329;BME280;62749;51.982;5.916;2023-05-14T13:04:23;101424.56;;;24.36;31.11
74329;BME280;62749;51.982;5.916;2023-05-14T13:06:52;101436.94;;;24.29;34.91
74329;BME280;62749;51.982;5.916;2023-05-14T13:09:21;101435.13;;;24.59;37.23
74329;BME280;62749;51.982;5.916;2023-05-14T13:11:55;101431.69;;;24.66;39.41
74329;BME280;62749;51.982;5.916;2023-05-14T13:14:25;101418.94;;;24.59;41.68
74329;BME280;62749;51.982;5.916;2023-05-14T13:16:54;101419.06;;;24.67;41.40
74329;BME280;62749;51.982;5.916;2023-05-14T13:19:23;101422.34;;;24.80;40.74
74329;BME280;62749;51.982;5.916;2023-05-14T13:21:53;101408.41;;;24.56;40.72
74329;BME280;62749;51.982;5.916;2023-05-14T13:24:22;101419.19;;;24.56;41.65